Pocono Summit, Pennsylvania
Current Conditions -  °F | °C
As of 3:53 PM on Tuesday 21 Oct 2014 (Local Time) from KMPO Reporting Station
Overcast Overcast  
Wind Chill: 13°   Ceiling: 6000
Heat Index: 13°   Visibility: 10mi
Dew Point:   Wind: 5mph
Humidity: 74%   Direction: 70°ENE
Pressure: 29.84"   Gusts: NA
Location:  41.11°N, 75.39°W
Report Text: KMPO 211953Z AUTO 07004KT 10SM FEW017 BKN060 OVC075 13/08 A2984 RMK AO2 SLP108 T01280083 TSNO PNO $
Loading
Personal Weather Stations






























Interactive Weather Map
Tropical Storm Tracking
New forecast layout! Learn more

10-Day Weather Forecast

Advertisements
Track Severe Weather on mobile